createdAt,value
2022-11-22T00:01:04.723Z,29.85
2022-11-22T00:03:34.310Z,33.58
2022-11-22T00:06:03.620Z,25.77
2022-11-22T00:08:33.046Z,24.42
2022-11-22T00:11:07.123Z,26.60
2022-11-22T00:13:41.428Z,20.60
2022-11-22T00:16:12.502Z,33.58
2022-11-22T00:21:16.402Z,27.70
2022-11-22T00:23:45.461Z,30.05
2022-11-22T00:26:19.749Z,29.95
2022-11-22T00:28:49.418Z,23.13
2022-11-22T00:31:20.397Z,28.17
2022-11-22T00:33:49.548Z,32.47
2022-11-22T00:36:18.932Z,26.10
2022-11-22T00:38:53.171Z,32.10
2022-11-22T00:41:22.417Z,23.10
2022-11-22T00:43:51.523Z,28.58
2022-11-22T00:46:22.679Z,26.48
2022-11-22T00:48:51.889Z,27.73
2022-11-22T00:51:21.033Z,17.13
2022-11-22T00:53:55.256Z,24.90
2022-11-22T00:56:24.453Z,23.52
2022-11-22T00:58:53.513Z,26.85
2022-11-22T01:01:24.646Z,27.77
2022-11-22T01:03:53.888Z,23.00
2022-11-22T01:06:25.811Z,27.90
2022-11-22T01:08:55.423Z,27.30
2022-11-22T01:11:24.517Z,29.75
2022-11-22T01:13:53.713Z,27.63
2022-11-22T01:16:24.826Z,32.58
2022-11-22T01:18:59.084Z,27.70
2022-11-22T01:21:28.357Z,23.63
2022-11-22T01:23:57.647Z,26.42
2022-11-22T01:26:26.890Z,24.20
2022-11-22T01:28:56.427Z,25.92
2022-11-22T01:31:32.782Z,17.05
2022-11-22T01:34:02.381Z,21.90
2022-11-22T01:36:31.446Z,24.83
2022-11-22T01:39:01.011Z,16.13
2022-11-22T01:41:30.151Z,29.90
2022-11-22T01:43:59.554Z,22.42
2022-11-22T01:46:36.482Z,46.83
2022-11-22T01:49:08.520Z,25.75
2022-11-22T01:51:46.039Z,88.70
2022-11-22T01:54:19.404Z,32.38
2022-11-22T01:57:02.855Z,30.20
2022-11-22T01:59:34.781Z,28.60
2022-11-22T02:04:46.878Z,35.45
2022-11-22T02:07:21.608Z,36.60
2022-11-22T02:09:53.893Z,38.95
2022-11-22T02:12:33.498Z,40.40
2022-11-22T02:15:08.823Z,39.08
2022-11-22T02:17:37.961Z,30.00
2022-11-22T02:20:11.138Z,39.03
2022-11-22T02:22:53.403Z,25.73
2022-11-22T02:25:32.202Z,40.83
2022-11-22T02:28:03.638Z,34.55
2022-11-22T02:30:33.199Z,42.88
2022-11-22T02:33:02.259Z,30.88
2022-11-22T02:35:37.139Z,36.60
2022-11-22T02:38:09.711Z,31.13
2022-11-22T02:40:42.482Z,27.00
2022-11-22T02:43:21.491Z,40.25
2022-11-22T02:45:50.933Z,31.67
2022-11-22T02:48:20.808Z,33.10
2022-11-22T02:50:50.112Z,36.25
2022-11-22T02:53:24.199Z,30.45
2022-11-22T02:55:53.442Z,32.45
2022-11-22T02:58:29.511Z,39.47
2022-11-22T03:00:58.810Z,54.85
2022-11-22T03:03:27.998Z,36.97
2022-11-22T03:06:07.847Z,40.28
2022-11-22T03:08:36.926Z,33.80
2022-11-22T03:11:08.676Z,22.85
2022-11-22T03:16:09.379Z,36.63
2022-11-22T03:18:39.080Z,37.03
2022-11-22T03:21:10.736Z,29.55
2022-11-22T03:23:40.396Z,35.72
2022-11-22T03:26:10.707Z,39.22
2022-11-22T03:28:42.108Z,29.35
2022-11-22T03:31:11.461Z,26.17
2022-11-22T03:33:40.628Z,25.45
2022-11-22T03:36:09.868Z,42.10
2022-11-22T03:38:39.004Z,30.08
2022-11-22T03:41:08.274Z,31.33
2022-11-22T03:43:37.470Z,37.10
2022-11-22T03:46:08.781Z,28.85
2022-11-22T03:48:37.917Z,37.30
2022-11-22T03:51:08.152Z,24.00
2022-11-22T03:53:37.323Z,25.02
2022-11-22T03:56:07.342Z,43.85
2022-11-22T04:01:25.472Z,40.38
2022-11-22T04:03:59.844Z,38.72
2022-11-22T04:06:29.066Z,164.50
2022-11-22T04:08:58.242Z,35.20
2022-11-22T04:11:34.339Z,33.92
2022-11-22T04:14:16.348Z,41.65
2022-11-22T04:19:16.528Z,39.35
2022-11-22T04:21:43.564Z,24.38
2022-11-22T04:27:01.461Z,25.33
2022-11-22T04:29:30.781Z,36.28
2022-11-22T04:32:15.085Z,42.05
2022-11-22T04:34:44.319Z,41.03
2022-11-22T04:37:13.440Z,38.63
2022-11-22T04:39:42.720Z,45.63
2022-11-22T04:42:24.715Z,29.13
2022-11-22T04:44:59.095Z,39.45
2022-11-22T04:47:48.971Z,43.83
2022-11-22T04:50:32.937Z,39.05
2022-11-22T04:53:02.095Z,45.00
2022-11-22T04:55:31.194Z,30.88
2022-11-22T04:58:00.632Z,39.75
2022-11-22T05:00:30.370Z,31.50
2022-11-22T05:03:07.987Z,34.92
2022-11-22T05:05:38.270Z,43.70
2022-11-22T05:08:15.033Z,40.63
2022-11-22T05:10:59.131Z,44.25
2022-11-22T05:16:10.331Z,38.50
2022-11-22T05:18:45.891Z,28.15
2022-11-22T05:21:20.164Z,38.40
2022-11-22T05:23:56.104Z,35.80
2022-11-22T05:26:26.902Z,35.25
2022-11-22T05:28:57.565Z,39.53
2022-11-22T05:31:28.313Z,28.88
2022-11-22T05:33:59.680Z,33.20
2022-11-22T05:36:33.979Z,36.83
2022-11-22T05:39:03.543Z,38.38
2022-11-22T05:41:32.770Z,33.20
2022-11-22T05:44:02.059Z,16.55
2022-11-22T05:46:32.149Z,31.05
2022-11-22T05:51:38.913Z,32.97
2022-11-22T05:54:07.997Z,25.35
2022-11-22T05:56:37.196Z,33.03
2022-11-22T05:59:06.328Z,19.73
2022-11-22T06:01:35.683Z,24.33
2022-11-22T06:04:12.090Z,22.77
2022-11-22T06:06:41.593Z,16.17
2022-11-22T06:09:10.736Z,20.50
2022-11-22T06:11:40.575Z,28.75
2022-11-22T06:14:11.088Z,29.23
2022-11-22T06:16:40.414Z,23.77
2022-11-22T06:19:12.731Z,27.90
2022-11-22T06:21:42.094Z,22.65
2022-11-22T06:24:12.735Z,26.50
2022-11-22T06:26:42.207Z,24.05
2022-11-22T06:29:11.665Z,32.45
2022-11-22T06:31:40.937Z,23.85
2022-11-22T06:34:15.049Z,25.83
2022-11-22T06:36:44.285Z,29.00
2022-11-22T06:39:13.631Z,19.17
2022-11-22T06:41:47.866Z,21.77
2022-11-22T06:44:17.108Z,17.58
2022-11-22T06:46:46.294Z,24.80
2022-11-22T06:51:57.451Z,20.77
2022-11-22T06:54:26.621Z,24.40
2022-11-22T06:56:55.873Z,24.20
2022-11-22T06:59:25.014Z,20.25
2022-11-22T07:02:07.158Z,21.90
2022-11-22T07:04:56.100Z,17.33
2022-11-22T07:07:27.980Z,16.67
2022-11-22T07:09:57.118Z,20.20
2022-11-22T07:12:31.305Z,14.98
2022-11-22T07:15:00.667Z,19.05
2022-11-22T07:17:30.780Z,14.65
2022-11-22T07:20:02.264Z,12.30
2022-11-22T07:22:33.650Z,13.57
2022-11-22T07:25:08.074Z,17.45
2022-11-22T07:27:37.401Z,16.27
2022-11-22T07:30:07.765Z,11.05
2022-11-22T07:32:37.175Z,17.80
2022-11-22T07:35:10.831Z,12.40
2022-11-22T07:37:40.094Z,14.60
2022-11-22T07:40:11.368Z,8.13
2022-11-22T07:42:41.544Z,11.02
2022-11-22T07:45:12.107Z,11.88
2022-11-22T07:47:41.427Z,12.73
2022-11-22T07:50:17.872Z,12.05
2022-11-22T07:52:47.201Z,12.45
2022-11-22T07:55:16.583Z,12.25
2022-11-22T07:57:48.225Z,12.82
2022-11-22T08:00:18.016Z,12.82
2022-11-22T08:02:52.217Z,13.77
2022-11-22T08:05:23.660Z,13.05
2022-11-22T08:07:54.456Z,21.83
2022-11-22T08:10:24.471Z,15.60
2022-11-22T08:12:53.658Z,17.13
2022-11-22T08:15:23.124Z,12.85
2022-11-22T08:17:52.228Z,16.85
2022-11-22T08:20:23.587Z,13.88
2022-11-22T08:22:52.738Z,15.90
2022-11-22T08:25:21.788Z,15.10
2022-11-22T08:27:51.214Z,16.45
2022-11-22T08:30:20.476Z,18.83
2022-11-22T08:32:51.168Z,17.50
2022-11-22T08:35:22.853Z,16.95
2022-11-22T08:37:52.135Z,18.63
2022-11-22T08:40:21.137Z,16.45
2022-11-22T08:42:50.439Z,17.70
2022-11-22T08:45:25.041Z,18.20
2022-11-22T08:47:54.230Z,15.38
2022-11-22T08:50:25.352Z,15.20
2022-11-22T08:52:54.592Z,18.23
2022-11-22T08:55:23.740Z,16.17
2022-11-22T08:57:58.156Z,16.35
2022-11-22T09:00:33.033Z,17.60
2022-11-22T09:03:02.797Z,15.65
2022-11-22T09:05:34.863Z,21.00
2022-11-22T09:08:24.746Z,16.58
2022-11-22T09:10:54.175Z,12.75
2022-11-22T09:13:23.364Z,14.85
2022-11-22T09:15:52.744Z,16.20
2022-11-22T09:18:21.916Z,11.32
2022-11-22T09:21:00.323Z,12.90
2022-11-22T09:23:29.959Z,11.52
2022-11-22T09:26:00.360Z,14.32
2022-11-22T09:28:30.390Z,13.43
2022-11-22T09:31:08.379Z,10.98
2022-11-22T09:33:39.702Z,9.75
2022-11-22T09:36:13.467Z,10.95
2022-11-22T09:38:43.074Z,11.70
2022-11-22T09:41:24.856Z,10.68
2022-11-22T09:44:03.025Z,8.35
2022-11-22T09:46:44.920Z,7.70
2022-11-22T09:49:27.676Z,10.27
2022-11-22T09:52:11.220Z,8.15
2022-11-22T09:54:47.153Z,9.70
2022-11-22T09:57:27.573Z,8.90
2022-11-22T10:00:03.199Z,7.18
2022-11-22T10:03:05.606Z,9.57
2022-11-22T10:05:48.488Z,8.30
2022-11-22T10:08:35.483Z,5.90
2022-11-22T10:11:21.243Z,8.35
2022-11-22T10:13:55.144Z,7.32
2022-11-22T10:16:32.742Z,7.85
2022-11-22T10:19:10.821Z,10.68
2022-11-22T10:21:40.142Z,7.90
2022-11-22T10:24:22.172Z,6.70
2022-11-22T10:26:52.060Z,5.80
2022-11-22T10:29:31.917Z,8.45
2022-11-22T10:32:07.678Z,6.78
2022-11-22T10:34:49.583Z,8.75
2022-11-22T10:37:32.076Z,7.35
2022-11-22T10:40:18.707Z,10.07
2022-11-22T10:43:09.427Z,7.75
2022-11-22T10:45:45.654Z,8.02
2022-11-22T10:48:28.566Z,8.15
2022-11-22T10:51:12.279Z,8.50
2022-11-22T10:54:00.376Z,6.38
2022-11-22T10:56:41.171Z,8.65
2022-11-22T10:59:35.765Z,9.27
2022-11-22T11:02:37.506Z,7.80
2022-11-22T11:05:12.340Z,10.88
2022-11-22T11:07:45.570Z,10.65
2022-11-22T11:10:29.519Z,10.25
2022-11-22T11:13:07.692Z,8.40
2022-11-22T11:15:41.137Z,11.85
2022-11-22T11:18:17.220Z,14.82
2022-11-22T11:20:51.026Z,12.05
2022-11-22T11:23:21.396Z,10.02
2022-11-22T11:25:52.063Z,7.80
2022-11-22T11:28:25.672Z,10.75
2022-11-22T11:30:58.140Z,7.03
2022-11-22T11:33:30.069Z,10.75
2022-11-22T11:36:05.925Z,7.60
2022-11-22T11:38:38.474Z,9.18
2022-11-22T11:41:23.060Z,8.48
2022-11-22T11:43:55.545Z,12.50
2022-11-22T11:46:27.017Z,7.72
2022-11-22T11:48:57.761Z,9.35
2022-11-22T11:51:37.504Z,9.32
2022-11-22T11:54:13.036Z,9.93
2022-11-22T11:56:48.219Z,7.50
2022-11-22T11:59:21.600Z,8.40
2022-11-22T12:01:55.666Z,8.68
2022-11-22T12:04:29.672Z,12.68
2022-11-22T12:07:04.849Z,8.63
2022-11-22T12:09:37.524Z,10.82
2022-11-22T12:12:33.636Z,11.23
2022-11-22T12:15:14.710Z,9.00
2022-11-22T12:17:52.230Z,7.57
2022-11-22T12:20:26.984Z,12.80
2022-11-22T12:23:12.477Z,9.07
2022-11-22T12:25:42.430Z,8.93
2022-11-22T12:28:20.023Z,12.55
2022-11-22T12:31:01.137Z,9.00
2022-11-22T12:33:36.093Z,9.43
2022-11-22T12:36:06.990Z,9.68
2022-11-22T12:38:42.253Z,10.60
2022-11-22T12:41:16.688Z,8.68
2022-11-22T12:43:53.172Z,9.75
2022-11-22T12:46:32.883Z,9.38
2022-11-22T12:55:29.023Z,9.75
2022-11-22T12:58:05.973Z,8.43
2022-11-22T13:00:42.912Z,12.20
2022-11-22T13:03:18.233Z,8.10
2022-11-22T13:05:51.304Z,12.52
2022-11-22T13:08:33.144Z,9.48
2022-11-22T13:11:08.735Z,11.25
2022-11-22T13:13:41.576Z,9.38
2022-11-22T13:16:13.267Z,10.52
2022-11-22T13:18:47.605Z,9.05
2022-11-22T13:21:27.809Z,12.35
2022-11-22T13:24:14.292Z,11.88
2022-11-22T13:26:58.390Z,12.55
2022-11-22T13:29:30.469Z,6.28
2022-11-22T13:34:35.503Z,7.72
2022-11-22T13:37:13.570Z,9.85
2022-11-22T13:39:46.917Z,10.68
2022-11-22T13:42:27.265Z,7.80
2022-11-22T13:45:25.956Z,7.50
2022-11-22T13:47:55.311Z,10.55
2022-11-22T13:51:02.808Z,7.93
2022-11-22T13:53:34.726Z,9.25
2022-11-22T13:56:45.796Z,10.50
2022-11-22T13:59:22.325Z,12.13
2022-11-22T14:02:02.512Z,13.43
2022-11-22T14:04:45.635Z,10.90
2022-11-22T14:07:31.980Z,9.40
2022-11-22T14:10:02.352Z,11.57
2022-11-22T14:13:04.306Z,13.70
2022-11-22T14:16:03.461Z,8.70
2022-11-22T14:18:52.164Z,12.45
2022-11-22T14:21:42.304Z,11.32
2022-11-22T14:24:21.504Z,9.20
2022-11-22T14:27:00.015Z,13.75
2022-11-22T14:30:06.836Z,11.98
2022-11-22T14:32:52.086Z,10.25
2022-11-22T14:35:31.942Z,13.63
2022-11-22T14:38:07.000Z,12.82
2022-11-22T14:40:41.162Z,9.93
2022-11-22T14:43:30.000Z,9.80
2022-11-22T14:46:04.189Z,11.98
2022-11-22T14:48:45.775Z,12.00
2022-11-22T14:51:30.741Z,9.20
2022-11-22T14:54:03.753Z,12.23
2022-11-22T14:56:36.205Z,13.60
2022-11-22T14:59:21.618Z,12.88
2022-11-22T15:02:16.874Z,10.52
2022-11-22T15:09:21.752Z,10.43
2022-11-22T15:11:32.615Z,13.70
2022-11-22T15:14:34.496Z,10.65
2022-11-22T15:57:48.869Z,16.67
2022-11-22T16:00:22.704Z,9.38
2022-11-22T16:02:54.796Z,10.35
2022-11-22T16:06:09.700Z,13.68
2022-11-22T16:08:26.613Z,15.43
2022-11-22T16:11:03.192Z,12.52
2022-11-22T16:13:36.843Z,12.80
2022-11-22T16:16:09.074Z,12.75
2022-11-22T16:18:38.841Z,10.93
2022-11-22T16:21:20.317Z,9.27
2022-11-22T16:23:50.083Z,17.40
2022-11-22T16:26:29.787Z,15.77
2022-11-22T16:29:20.028Z,12.02
2022-11-22T16:31:49.320Z,14.68
2022-11-22T16:34:18.754Z,13.07
2022-11-22T16:36:48.214Z,13.30
2022-11-22T16:39:17.782Z,11.75
2022-11-22T16:41:49.408Z,13.65
2022-11-22T16:44:21.165Z,11.73
2022-11-22T16:46:50.405Z,10.95
2022-11-22T16:49:21.253Z,13.77
2022-11-22T16:51:52.476Z,14.70
2022-11-22T16:54:23.504Z,14.05
2022-11-22T16:56:54.894Z,13.75
2022-11-22T16:59:24.103Z,16.70
2022-11-22T17:01:53.341Z,13.60
2022-11-22T17:04:40.678Z,15.45
2022-11-22T17:07:11.393Z,11.40
2022-11-22T17:09:40.723Z,15.07
2022-11-22T17:12:16.041Z,16.90
2022-11-22T17:14:48.005Z,15.48
2022-11-22T17:19:53.222Z,18.75
2022-11-22T17:22:23.382Z,20.42
2022-11-22T17:24:52.593Z,13.60
2022-11-22T17:27:24.247Z,13.32
2022-11-22T17:29:53.849Z,15.27
2022-11-22T17:32:23.187Z,19.75
2022-11-22T17:34:57.710Z,12.50
2022-11-22T17:37:29.064Z,15.02
2022-11-22T17:40:03.622Z,19.20
2022-11-22T17:42:40.984Z,18.80
2022-11-22T17:45:16.694Z,12.63
2022-11-22T17:47:48.913Z,17.20
2022-11-22T17:50:24.109Z,15.23
2022-11-22T17:52:54.802Z,18.25
2022-11-22T17:55:26.404Z,16.75
2022-11-22T17:58:04.173Z,14.35
2022-11-22T18:00:38.961Z,14.57
2022-11-22T18:03:08.451Z,17.17
2022-11-22T18:05:37.843Z,16.23
2022-11-22T18:08:15.312Z,15.98
2022-11-22T18:10:44.574Z,18.38
2022-11-22T18:13:22.833Z,25.20
2022-11-22T18:16:03.562Z,26.02
2022-11-22T18:18:56.417Z,16.98
2022-11-22T18:21:24.930Z,15.90
2022-11-22T18:23:54.213Z,17.08
2022-11-22T18:26:38.899Z,23.27
2022-11-22T18:32:03.524Z,20.05
2022-11-22T18:34:32.967Z,20.25
2022-11-22T18:37:03.865Z,40.65
2022-11-22T18:39:40.436Z,22.02
2022-11-22T18:42:12.197Z,19.50
2022-11-22T18:44:43.959Z,16.75
2022-11-22T18:47:13.499Z,19.95
2022-11-22T18:49:42.772Z,22.30
2022-11-22T18:52:14.950Z,16.90
2022-11-22T18:54:47.024Z,23.80
2022-11-22T18:57:17.017Z,16.50
2022-11-22T18:59:53.304Z,24.38
2022-11-22T19:02:25.517Z,25.55
2022-11-22T19:04:56.288Z,19.92
2022-11-22T19:07:31.118Z,16.70
2022-11-22T19:10:01.954Z,18.80
2022-11-22T19:12:32.563Z,17.55
2022-11-22T19:15:03.855Z,15.57
2022-11-22T19:17:34.167Z,13.57
2022-11-22T19:20:03.693Z,17.48
2022-11-22T19:22:32.982Z,16.40
2022-11-22T19:25:02.580Z,13.07
2022-11-22T19:27:32.780Z,15.40
2022-11-22T19:30:04.146Z,11.23
2022-11-22T19:32:33.570Z,14.55
2022-11-22T19:35:02.865Z,11.77
2022-11-22T19:37:37.346Z,12.38
2022-11-22T19:40:17.873Z,14.75
2022-11-22T19:42:47.284Z,11.63
2022-11-22T19:45:18.665Z,11.57
2022-11-22T19:47:53.379Z,10.02
2022-11-22T19:50:22.819Z,11.68
2022-11-22T19:52:53.259Z,10.50
2022-11-22T19:55:27.496Z,10.93
2022-11-22T19:57:56.741Z,10.55
2022-11-22T20:00:28.502Z,13.70
2022-11-22T20:02:58.992Z,11.70
2022-11-22T20:05:34.124Z,11.68
2022-11-22T20:08:03.340Z,13.30
2022-11-22T20:10:44.515Z,15.07
2022-11-22T20:13:13.727Z,10.93
2022-11-22T20:15:45.307Z,13.68
2022-11-22T20:18:14.471Z,13.98
2022-11-22T20:20:43.731Z,12.40
2022-11-22T20:23:12.860Z,13.52
2022-11-22T20:25:42.398Z,15.10
2022-11-22T20:28:11.823Z,13.90
2022-11-22T20:30:41.070Z,11.23
2022-11-22T20:33:12.699Z,12.50
2022-11-22T20:35:42.143Z,13.43
2022-11-22T20:38:12.829Z,16.17
2022-11-22T20:40:42.323Z,12.80
2022-11-22T20:43:11.686Z,19.20
2022-11-22T20:45:40.916Z,18.27
2022-11-22T20:48:19.773Z,13.60
2022-11-22T20:50:52.857Z,14.70
2022-11-22T20:53:22.283Z,18.42
2022-11-22T20:55:51.476Z,21.00
2022-11-22T20:58:20.954Z,19.67
2022-11-22T21:00:50.299Z,21.55
2022-11-22T21:03:21.773Z,18.63
2022-11-22T21:05:53.828Z,14.23
2022-11-22T21:08:24.089Z,17.83
2022-11-22T21:11:13.718Z,17.45
2022-11-22T21:13:43.384Z,14.13
2022-11-22T21:16:23.205Z,13.15
2022-11-22T21:19:01.856Z,16.30
2022-11-22T21:21:31.879Z,13.85
2022-11-22T21:24:02.563Z,13.73
2022-11-22T21:26:37.093Z,14.98
2022-11-22T21:29:15.959Z,14.32
2022-11-22T21:31:45.600Z,17.35
2022-11-22T21:34:17.004Z,18.60
2022-11-22T21:36:52.981Z,18.13
2022-11-22T21:39:22.217Z,12.05
2022-11-22T21:42:01.567Z,13.95
2022-11-22T21:44:31.062Z,16.25
2022-11-22T21:47:00.397Z,18.50
2022-11-22T21:49:43.217Z,20.25
2022-11-22T21:52:14.523Z,21.30
2022-11-22T21:54:43.745Z,20.35
2022-11-22T21:57:13.782Z,26.88
2022-11-22T21:59:43.003Z,28.60
2022-11-22T22:02:12.391Z,26.67
2022-11-22T22:04:41.763Z,28.38
2022-11-22T22:07:29.635Z,30.88
2022-11-22T22:10:02.353Z,37.63
2022-11-22T22:12:43.508Z,34.25
2022-11-22T22:15:13.930Z,30.88
2022-11-22T22:17:43.647Z,35.65
2022-11-22T22:20:13.609Z,30.20
2022-11-22T22:22:42.817Z,28.33
2022-11-22T22:25:13.885Z,28.42
2022-11-22T22:27:44.243Z,25.88
2022-11-22T22:30:16.393Z,23.80
2022-11-22T22:32:55.583Z,27.63
2022-11-22T22:35:25.078Z,28.80
2022-11-22T22:37:54.485Z,32.97
2022-11-22T22:40:26.051Z,43.45
2022-11-22T22:42:55.290Z,36.25
2022-11-22T22:45:24.489Z,33.38
2022-11-22T22:47:53.679Z,32.90
2022-11-22T22:50:23.136Z,32.60
2022-11-22T22:52:57.984Z,36.30
2022-11-22T22:55:29.291Z,37.35
2022-11-22T22:58:04.024Z,50.03
2022-11-22T23:00:33.258Z,46.85
2022-11-22T23:03:07.536Z,43.65
2022-11-22T23:05:40.221Z,41.20
2022-11-22T23:08:09.479Z,44.72
2022-11-22T23:10:41.775Z,42.80
2022-11-22T23:13:16.957Z,32.35
2022-11-22T23:15:57.993Z,40.13
2022-11-22T23:18:28.036Z,33.08
2022-11-22T23:21:00.608Z,37.45
2022-11-22T23:23:31.271Z,32.20
2022-11-22T23:26:06.183Z,30.98
2022-11-22T23:28:35.638Z,28.73
2022-11-22T23:31:09.212Z,27.48
2022-11-22T23:33:38.824Z,28.27
2022-11-22T23:36:10.294Z,36.15
2022-11-22T23:38:40.057Z,28.80
2022-11-22T23:41:13.802Z,32.28
2022-11-22T23:43:49.329Z,27.60
2022-11-22T23:46:18.556Z,45.13
2022-11-22T23:48:48.529Z,32.70
2022-11-22T23:51:23.108Z,33.72
2022-11-22T23:53:56.814Z,20.80
2022-11-22T23:56:30.003Z,28.67
2022-11-22T23:59:01.061Z,29.30
